Time;durP1;ratioP1;P1;durP2;ratioP2;P2;SDS_P1;SDS_P2;PMS_P1;PMS_P2;Temp;Humidity;BMP_temperature;BMP_pressure;BME280_temperature;BME280_humidity;BME280_pressure;Samples;Min_cycle;Max_cycle;Signal;HPM_P1;HPM_P2
2020/12/20 00:00:30;;;;;;;261.52;121.25;;;;;;;-3.77;83.99;99076.80;1709283;82;21475;-78
2020/12/20 00:02:56;;;;;;;270.70;121.07;;;;;;;-3.76;84.16;99074.02;1679923;84;21133;-83
2020/12/20 00:05:23;;;;;;;245.17;123.20;;;;;;;-3.86;84.04;99074.62;1709284;82;21803;-79
2020/12/20 00:07:50;;;;;;;263.35;124.40;;;;;;;-3.88;84.45;99073.97;1709248;84;21193;-83
2020/12/20 00:10:19;;;;;;;256.50;115.15;;;;;;;-3.84;84.43;99069.20;1679945;84;21567;-83
2020/12/20 00:12:45;;;;;;;234.50;114.15;;;;;;;-3.83;84.37;99070.35;1709361;82;21157;-77
2020/12/20 00:15:12;;;;;;;217.10;102.82;;;;;;;-3.85;84.38;99069.66;1709367;82;21499;-77
2020/12/20 00:17:38;;;;;;;196.72;97.12;;;;;;;-3.86;84.72;99075.95;1679874;84;21263;-77
2020/12/20 00:20:05;;;;;;;208.38;100.20;;;;;;;-3.78;84.91;99072.49;1709235;82;21261;-82
2020/12/20 00:22:31;;;;;;;217.47;97.90;;;;;;;-3.70;85.07;99066.72;1681030;84;21615;-82
2020/12/20 00:24:57;;;;;;;210.72;103.60;;;;;;;-3.64;85.13;99067.89;1709222;82;20991;-78
2020/12/20 00:27:24;;;;;;;219.97;102.07;;;;;;;-3.62;84.99;99065.91;1709448;84;21298;-77
2020/12/20 00:29:50;;;;;;;225.97;103.32;;;;;;;-3.60;84.62;99062.58;1709230;82;21205;-82
2020/12/20 00:32:16;;;;;;;226.30;104.47;;;;;;;-3.58;84.39;99057.98;1709592;82;21640;-78
2020/12/20 00:38:00;;;;;;;232.77;110.65;;;;;;;-3.64;83.75;99057.80;1908825;74;21851;-77
2020/12/20 00:40:26;;;;;;;257.12;119.20;;;;;;;-3.75;83.58;99062.42;1848320;77;20876;-77
2020/12/20 00:42:52;;;;;;;235.68;109.17;;;;;;;-3.81;83.77;99052.97;1827284;78;21479;-77
2020/12/20 00:45:18;;;;;;;227.13;106.27;;;;;;;-3.88;83.51;99055.92;1827154;77;20971;-82
2020/12/20 00:47:44;;;;;;;215.35;98.27;;;;;;;-3.87;83.86;99049.14;1808772;78;20994;-77
2020/12/20 00:50:10;;;;;;;214.88;99.47;;;;;;;-3.84;84.00;99049.33;1808856;78;21007;-81
2020/12/20 00:52:36;;;;;;;212.35;93.12;;;;;;;-3.83;84.21;99052.30;1827255;78;20900;-82
2020/12/20 00:55:02;;;;;;;210.50;95.05;;;;;;;-3.90;84.06;99045.50;1827332;77;22048;-80
2020/12/20 00:57:29;;;;;;;173.80;76.67;;;;;;;-3.94;84.25;99040.67;1827103;78;21452;-77
2020/12/20 00:59:55;;;;;;;150.90;69.95;;;;;;;-3.91;84.89;99040.37;1808827;77;21223;-82
2020/12/20 01:02:21;;;;;;;157.18;71.72;;;;;;;-3.82;84.71;99045.52;1827125;78;21555;-82
2020/12/20 01:04:47;;;;;;;168.70;79.72;;;;;;;-3.77;84.83;99048.98;1827172;77;20904;-77
2020/12/20 01:07:13;;;;;;;172.22;79.50;;;;;;;-3.79;84.68;99052.30;1827118;78;22094;-82
2020/12/20 01:09:41;;;;;;;171.77;79.72;;;;;;;-3.81;84.36;99053.80;1827098;77;21379;-82
2020/12/20 01:12:07;;;;;;;171.80;83.37;;;;;;;-3.81;84.23;99056.94;1808882;78;21007;-78
2020/12/20 01:14:35;;;;;;;163.75;75.17;;;;;;;-3.89;83.88;99053.77;1827175;77;21887;-78
2020/12/20 01:17:03;;;;;;;174.75;79.72;;;;;;;-3.88;83.89;99049.30;1827091;77;21157;-83
2020/12/20 01:19:29;;;;;;;176.78;85.25;;;;;;;-3.92;83.61;99049.31;1827209;77;21329;-78
2020/12/20 01:21:55;;;;;;;189.95;86.15;;;;;;;-3.93;83.63;99048.95;1827015;77;20885;-83
2020/12/20 01:24:21;;;;;;;181.05;83.42;;;;;;;-4.05;83.51;99046.61;1808689;78;20935;-78
2020/12/20 01:26:47;;;;;;;188.65;83.75;;;;;;;-4.04;83.63;99048.27;1782247;78;20850;-82
2020/12/20 01:29:13;;;;;;;176.47;83.03;;;;;;;-4.06;83.30;99040.98;1827239;78;20916;-78
2020/12/20 01:31:39;;;;;;;180.40;82.20;;;;;;;-4.08;83.21;99039.01;1827140;77;21277;-83
2020/12/20 01:34:05;;;;;;;158.25;76.45;;;;;;;-4.09;83.56;99036.03;1827080;78;20995;-82
2020/12/20 01:36:32;;;;;;;155.65;73.12;;;;;;;-4.27;83.84;99032.67;1826964;77;20936;-78
2020/12/20 01:38:58;;;;;;;149.65;69.30;;;;;;;-4.21;83.81;99032.50;1827100;78;21095;-78
2020/12/20 01:41:24;;;;;;;145.55;67.12;;;;;;;-4.22;83.85;99034.82;1808634;78;20965;-78
2020/12/20 01:43:53;;;;;;;141.80;63.23;;;;;;;-4.18;83.96;99031.70;1827250;78;21178;-78
2020/12/20 01:46:21;;;;;;;142.50;66.53;;;;;;;-4.07;84.15;99026.09;1827115;77;21162;-78
2020/12/20 01:48:48;;;;;;;141.45;66.67;;;;;;;-4.09;83.89;99037.84;1782064;78;21574;-82
2020/12/20 01:51:14;;;;;;;152.80;67.90;;;;;;;-4.10;83.92;99037.48;1808254;78;21047;-82
2020/12/20 01:53:40;;;;;;;178.55;78.12;;;;;;;-4.10;83.81;99032.19;1808155;78;20954;-78
2020/12/20 01:56:07;;;;;;;160.37;73.80;;;;;;;-4.13;83.88;99027.23;1826559;77;21236;-83
2020/12/20 01:58:40;;;;;;;147.85;66.20;;;;;;;-4.15;83.81;99030.55;1808121;78;21147;-82
2020/12/20 02:01:08;;;;;;;143.45;64.55;;;;;;;-4.13;84.01;99029.88;1809200;78;21444;-83
2020/12/20 02:03:33;;;;;;;143.80;63.75;;;;;;;-4.05;84.24;99025.94;1826552;78;21142;-79
2020/12/20 02:05:59;;;;;;;135.75;62.73;;;;;;;-4.04;83.99;99022.29;1808113;78;20944;-83
2020/12/20 02:08:28;;;;;;;137.60;58.48;;;;;;;-4.01;84.01;99020.66;1808022;78;21967;-79
2020/12/20 02:11:16;;;;;;;116.93;55.98;;;;;;;-4.04;83.71;99021.80;1826549;77;21079;-78
2020/12/20 02:13:45;;;;;;;99.92;51.88;;;;;;;-4.08;83.62;99025.77;1826558;78;21115;-78
2020/12/20 02:16:14;;;;;;;116.88;50.28;;;;;;;-4.08;83.78;99012.53;1807777;78;21579;-79
2020/12/20 02:18:40;;;;;;;109.65;51.18;;;;;;;-4.06;84.06;99016.34;1826588;78;21178;-79
2020/12/20 02:21:12;;;;;;;128.47;53.73;;;;;;;-4.07;83.67;99017.33;1826462;77;21063;-83
2020/12/20 02:23:42;;;;;;;114.52;56.20;;;;;;;-4.02;84.11;99017.16;1813032;78;21040;-83
2020/12/20 02:26:11;;;;;;;124.05;53.40;;;;;;;-3.95;84.19;99016.02;1826422;77;21071;-79
2020/12/20 02:28:40;;;;;;;107.45;50.67;;;;;;;-4.03;83.01;99012.85;1826243;78;21087;-79
2020/12/20 02:31:06;;;;;;;109.97;51.63;;;;;;;-4.03;83.25;99013.35;1808552;78;21027;-79
2020/12/20 02:33:32;;;;;;;109.20;52.50;;;;;;;-4.14;83.00;99014.50;1826559;78;21812;-79
2020/12/20 02:35:58;;;;;;;107.03;48.90;;;;;;;-4.28;83.15;99013.28;1807957;78;21051;-79
2020/12/20 02:38:25;;;;;;;113.20;51.92;;;;;;;-4.26;83.54;99012.66;1826432;78;21487;-79
2020/12/20 02:40:51;;;;;;;100.30;52.03;;;;;;;-4.29;83.59;99013.45;1826465;77;21115;-78
2020/12/20 02:43:17;;;;;;;107.80;51.23;;;;;;;-4.23;83.87;99013.31;1808105;78;21043;-83
2020/12/20 02:45:43;;;;;;;105.50;52.98;;;;;;;-4.24;83.64;99015.14;1826547;77;21437;-79
2020/12/20 02:48:09;;;;;;;94.80;46.35;;;;;;;-4.26;83.57;99010.01;1807830;78;20904;-83
2020/12/20 02:50:35;;;;;;;91.75;42.65;;;;;;;-4.28;83.50;99004.52;1826498;77;21547;-83
2020/12/20 02:53:01;;;;;;;104.10;47.73;;;;;;;-4.28;83.44;99007.99;1826461;78;20932;-79
2020/12/20 02:55:27;;;;;;;90.10;44.67;;;;;;;-4.30;83.42;99007.83;1808212;78;21011;-81
2020/12/20 02:57:52;;;;;;;94.28;42.98;;;;;;;-4.35;83.58;99012.30;1826383;78;21183;-83
2020/12/20 03:00:19;;;;;;;89.03;41.20;;;;;;;-4.30;83.68;99014.45;1826427;77;21527;-83
2020/12/20 03:02:45;;;;;;;90.47;41.33;;;;;;;-4.35;83.67;99014.12;1826471;78;21467;-82
2020/12/20 03:05:11;;;;;;;82.75;38.92;;;;;;;-4.30;83.64;99005.18;1826515;77;21627;-83
2020/12/20 03:07:37;;;;;;;82.22;38.33;;;;;;;-4.28;83.63;99008.48;1826428;78;21523;-83
2020/12/20 03:10:05;;;;;;;87.10;40.30;;;;;;;-4.27;83.66;99007.53;1808044;78;21476;-79
2020/12/20 03:12:31;;;;;;;90.67;40.43;;;;;;;-4.25;83.81;99012.16;1826470;78;21551;-83
2020/12/20 03:14:57;;;;;;;83.10;39.85;;;;;;;-4.20;84.09;99003.22;1826457;77;20853;-80
2020/12/20 03:17:22;;;;;;;76.70;35.05;;;;;;;-4.13;84.20;99004.23;1826481;78;21529;-79
2020/12/20 03:19:49;;;;;;;66.82;32.15;;;;;;;-4.08;84.40;99001.94;1826432;77;20877;-79
2020/12/20 03:22:17;;;;;;;66.20;32.23;;;;;;;-4.06;83.94;99001.77;1826545;78;21149;-79
2020/12/20 03:24:42;;;;;;;66.85;31.40;;;;;;;-4.07;83.96;99003.59;1826225;77;21118;-84
2020/12/20 03:27:08;;;;;;;69.75;35.88;;;;;;;-4.03;83.91;99000.11;1826481;78;21451;-83
2020/12/20 03:29:34;;;;;;;70.47;31.40;;;;;;;-4.04;84.00;99006.41;1807986;77;21252;-78
2020/12/20 03:32:01;;;;;;;68.33;35.48;;;;;;;-4.01;84.21;99004.28;1826567;78;20904;-83
2020/12/20 03:34:27;;;;;;;75.95;35.45;;;;;;;-3.99;84.09;99017.34;1808109;78;21155;-83
2020/12/20 03:36:53;;;;;;;82.75;36.25;;;;;;;-3.89;84.33;99007.43;1807740;78;20987;-83
2020/12/20 03:39:19;;;;;;;64.40;32.23;;;;;;;-3.90;83.79;98999.16;1826479;78;20865;-79
2020/12/20 03:41:44;;;;;;;79.15;33.73;;;;;;;-3.84;84.19;98999.01;1826522;77;20849;-78
2020/12/20 03:44:11;;;;;;;77.35;34.48;;;;;;;-3.81;84.13;99003.47;1826398;78;20908;-83
2020/12/20 03:46:37;;;;;;;84.95;37.45;;;;;;;-3.88;84.01;99000.31;1826462;77;21476;-83
2020/12/20 03:49:03;;;;;;;77.82;37.98;;;;;;;-3.90;83.65;99000.48;1826318;78;20983;-83
2020/12/20 03:51:30;;;;;;;77.15;38.28;;;;;;;-3.93;83.41;99002.61;1826473;77;21125;-83
2020/12/20 03:53:56;;;;;;;75.57;34.53;;;;;;;-3.94;83.82;99009.73;1826403;78;21047;-83
2020/12/20 03:56:22;;;;;;;77.67;34.90;;;;;;;-3.94;83.79;99012.38;1826454;77;20888;-83
2020/12/20 03:58:47;;;;;;;76.62;36.53;;;;;;;-3.87;84.02;99011.23;1826432;78;21463;-83
2020/12/20 04:01:13;;;;;;;75.78;35.38;;;;;;;-3.80;84.07;99014.89;1826345;77;21063;-79
2020/12/20 04:03:39;;;;;;;73.65;34.63;;;;;;;-3.75;83.96;99018.72;1826435;78;20896;-79
2020/12/20 04:06:05;;;;;;;78.42;33.50;;;;;;;-3.73;83.77;99023.34;1807954;78;20992;-83
2020/12/20 04:08:31;;;;;;;76.00;35.20;;;;;;;-3.84;83.08;99019.70;1781575;78;21466;-78
2020/12/20 04:10:57;;;;;;;79.27;39.33;;;;;;;-3.96;83.19;99024.95;1826427;77;21143;-79
2020/12/20 04:13:23;;;;;;;80.05;37.95;;;;;;;-4.06;82.45;99025.60;1826380;78;21043;-81
2020/12/20 04:15:49;;;;;;;87.55;41.50;;;;;;;-4.20;82.29;99028.86;1807964;78;20999;-79
2020/12/20 04:18:15;;;;;;;84.28;36.80;;;;;;;-4.28;82.53;99023.88;1826438;78;21119;-79
2020/12/20 04:20:41;;;;;;;79.25;35.48;;;;;;;-4.33;82.89;99029.34;1826436;77;21650;-83
2020/12/20 04:23:07;;;;;;;86.10;38.30;;;;;;;-4.33;82.94;99018.75;1826455;78;21373;-83
2020/12/20 04:25:33;;;;;;;83.12;39.33;;;;;;;-4.33;83.15;99022.22;1826401;77;20963;-79
2020/12/20 04:27:59;;;;;;;85.30;38.35;;;;;;;-4.36;83.30;99027.84;1826493;78;21067;-79
2020/12/20 04:30:26;;;;;;;79.27;36.08;;;;;;;-4.38;83.33;99015.73;1826427;77;21515;-83
2020/12/20 04:32:52;;;;;;;77.20;35.52;;;;;;;-4.34;83.50;99022.39;1826460;78;21107;-82
2020/12/20 04:35:18;;;;;;;74.15;33.92;;;;;;;-4.43;83.40;99016.23;1826300;77;22003;-79
2020/12/20 04:37:44;;;;;;;68.75;33.90;;;;;;;-4.41;83.50;99019.55;1826218;78;20917;-83
2020/12/20 04:40:10;;;;;;;66.90;34.92;;;;;;;-4.34;83.96;99015.27;1826319;77;20943;-79
2020/12/20 04:42:36;;;;;;;79.70;34.95;;;;;;;-4.27;84.16;99008.36;1826442;78;22245;-83
2020/12/20 04:45:01;;;;;;;72.75;32.73;;;;;;;-4.24;83.84;99014.31;1807933;78;20984;-79
2020/12/20 04:47:28;;;;;;;64.87;31.30;;;;;;;-4.20;83.75;99009.02;1826455;78;21231;-79
2020/12/20 04:49:54;;;;;;;72.10;32.88;;;;;;;-4.21;83.24;99013.97;1807750;77;21659;-79
2020/12/20 04:52:20;;;;;;;78.00;37.88;;;;;;;-4.23;83.67;99011.50;1826468;78;20920;-79
2020/12/20 04:54:46;;;;;;;92.80;42.00;;;;;;;-4.15;83.85;99014.66;1826374;77;21047;-84
2020/12/20 04:57:16;;;;;;;83.30;39.40;;;;;;;-4.09;84.09;99017.50;1826409;78;21182;-82
2020/12/20 04:59:42;;;;;;;75.80;37.28;;;;;;;-4.14;83.44;99017.64;1807962;77;21531;-79
2020/12/20 05:02:12;;;;;;;72.67;34.20;;;;;;;-4.09;83.69;99012.70;1826541;78;21329;-83
2020/12/20 05:07:19;;;;;;;73.65;32.38;;;;;;;-4.15;82.72;99012.02;1847721;76;22126;-82
2020/12/20 05:09:47;;;;;;;74.10;31.73;;;;;;;-4.23;82.92;99014.64;1814760;78;21029;-82
2020/12/20 05:12:28;;;;;;;68.60;30.72;;;;;;;-4.28;82.92;99013.28;1784718;80;21223;-81
2020/12/20 05:14:54;;;;;;;63.80;34.25;;;;;;;-4.29;83.09;99014.28;1784432;79;21630;-82
2020/12/20 05:17:20;;;;;;;77.20;34.40;;;;;;;-4.21;83.52;99015.30;1785553;80;20975;-78
2020/12/20 05:19:46;;;;;;;67.72;29.95;;;;;;;-4.20;83.27;99023.08;1754912;79;21074;-82
2020/12/20 05:22:19;;;;;;;70.25;37.78;;;;;;;-4.30;82.92;99019.73;1729954;80;21169;-82
2020/12/20 05:24:49;;;;;;;67.95;32.30;;;;;;;-4.24;83.48;99016.95;1785556;79;21998;-82
2020/12/20 05:27:23;;;;;;;64.30;33.65;;;;;;;-4.26;83.32;99013.98;1785346;80;21194;-83
2020/12/20 05:29:51;;;;;;;76.28;41.80;;;;;;;-4.23;83.23;99014.14;1785526;79;21102;-82
2020/12/20 05:32:27;;;;;;;72.47;41.23;;;;;;;-4.21;83.45;99016.63;1785331;80;21618;-78
2020/12/20 05:35:04;;;;;;;74.75;34.70;;;;;;;-4.11;83.69;99026.57;1785522;79;21258;-82
2020/12/20 05:37:31;;;;;;;71.02;35.92;;;;;;;-4.11;83.06;99026.57;1785219;80;21217;-82
2020/12/20 05:39:57;;;;;;;81.55;37.55;;;;;;;-4.15;82.74;99030.05;1785343;79;21054;-82
2020/12/20 05:42:24;;;;;;;64.58;33.98;;;;;;;-4.16;83.00;99025.75;1785519;80;21558;-83
2020/12/20 05:45:12;;;;;;;87.80;39.88;;;;;;;-4.18;82.98;99029.05;1785450;79;21586;-83
2020/12/20 05:47:39;;;;;;;79.17;36.65;;;;;;;-4.28;82.25;99028.34;1784937;80;21111;-83
2020/12/20 05:50:05;;;;;;;77.60;38.63;;;;;;;-4.44;82.07;99033.11;1754786;80;22036;-79
2020/12/20 05:52:31;;;;;;;65.87;32.13;;;;;;;-4.46;82.21;99031.59;1785420;80;21266;-80
2020/12/20 05:54:57;;;;;;;74.00;36.15;;;;;;;-4.52;82.12;99032.24;1785420;79;20927;-79
2020/12/20 05:57:23;;;;;;;78.17;40.05;;;;;;;-4.56;82.49;99037.83;1785437;80;20900;-84
2020/12/20 05:59:53;;;;;;;77.72;38.00;;;;;;;-4.59;82.28;99038.66;1785461;79;21165;-79
2020/12/20 06:02:19;;;;;;;65.20;32.88;;;;;;;-4.57;82.49;99036.17;1785516;79;21809;-79
2020/12/20 06:04:46;;;;;;;66.57;33.42;;;;;;;-4.60;82.50;99037.83;1754989;79;21706;-79
2020/12/20 06:07:13;;;;;;;75.35;33.13;;;;;;;-4.60;82.39;99035.19;1785251;80;21118;-83
2020/12/20 06:09:57;;;;;;;59.08;30.82;;;;;;;-4.71;82.23;99036.77;1785456;79;21205;-84
2020/12/20 06:12:27;;;;;;;72.62;32.65;;;;;;;-4.70;82.34;99034.94;1754702;80;21111;-77
2020/12/20 06:14:55;;;;;;;77.62;34.25;;;;;;;-4.75;82.48;99037.25;1785422;79;21202;-78
2020/12/20 06:17:24;;;;;;;72.62;33.65;;;;;;;-4.76;82.50;99034.27;1784981;80;21035;-83
2020/12/20 06:20:04;;;;;;;66.67;33.95;;;;;;;-4.76;82.50;99035.59;1784337;79;21145;-83
2020/12/20 06:22:35;;;;;;;63.10;31.35;;;;;;;-4.72;82.74;99038.25;1784911;80;21222;-85
2020/12/20 06:25:04;;;;;;;67.03;32.17;;;;;;;-4.72;82.60;99046.18;1784993;79;21039;-82
2020/12/20 06:27:32;;;;;;;58.83;30.40;;;;;;;-4.76;82.56;99040.89;1784814;80;21920;-78
2020/12/20 06:30:03;;;;;;;56.00;28.38;;;;;;;-4.77;82.06;99041.88;1754508;80;21043;-83
2020/12/20 06:32:44;;;;;;;68.60;31.10;;;;;;;-4.76;82.62;99049.64;1783668;80;21047;-83
2020/12/20 06:35:24;;;;;;;61.98;28.00;;;;;;;-4.91;82.92;99046.74;1784918;79;21035;-77
2020/12/20 06:37:50;;;;;;;69.05;31.57;;;;;;;-4.91;83.23;99045.92;1754172;80;21535;-79
2020/12/20 06:40:36;;;;;;;82.67;33.98;;;;;;;-4.83;83.38;99040.18;1784825;79;21173;-79
2020/12/20 06:43:02;;;;;;;80.65;35.70;;;;;;;-4.80;83.30;99045.64;1784943;80;21145;-82
2020/12/20 06:45:30;;;;;;;77.25;35.88;;;;;;;-4.69;83.51;99047.20;1784875;79;21030;-78
2020/12/20 06:48:04;;;;;;;78.85;34.88;;;;;;;-4.71;82.82;99048.66;1784818;80;21106;-78
2020/12/20 06:50:46;;;;;;;71.25;35.05;;;;;;;-4.75;82.55;99057.91;1784818;79;21039;-80
2020/12/20 06:53:15;;;;;;;83.78;39.13;;;;;;;-4.78;82.39;99053.44;1784973;79;21830;-79
2020/12/20 06:55:41;;;;;;;72.92;34.92;;;;;;;-4.74;82.72;99061.38;1754258;80;21315;-83
2020/12/20 06:58:14;;;;;;;74.80;37.67;;;;;;;-4.70;82.69;99065.36;1754304;80;21031;-84
2020/12/20 07:00:56;;;;;;;76.50;34.80;;;;;;;-4.71;82.75;99065.85;1784901;79;21047;-77
2020/12/20 07:03:33;;;;;;;73.72;37.30;;;;;;;-4.76;82.70;99060.72;1784924;80;21209;-78
2020/12/20 07:06:11;;;;;;;81.87;39.98;;;;;;;-4.79;82.68;99063.16;1784852;79;21804;-78
2020/12/20 07:08:37;;;;;;;189.07;70.73;;;;;;;-4.83;82.61;99067.12;1785031;80;21115;-79
2020/12/20 07:11:07;;;;;;;103.02;51.18;;;;;;;-4.82;82.63;99073.57;1784817;79;21158;-83
2020/12/20 07:13:42;;;;;;;131.50;64.77;;;;;;;-4.94;82.77;99069.54;1782493;80;21145;-79
2020/12/20 07:16:10;;;;;;;226.32;99.37;;;;;;;-4.92;82.92;99068.05;1784862;79;21366;-83
2020/12/20 07:18:59;;;;;;;157.93;72.42;;;;;;;-4.81;83.10;99077.04;1784825;80;22130;-79
2020/12/20 07:21:32;;;;;;;;;;;;;;;-4.74;82.84;99074.11;1787402;79;21579;-83
2020/12/20 07:24:07;;;;;;;151.15;74.17;;;;;;;-4.72;82.74;99080.06;1784905;80;20227;-82
2020/12/20 07:26:32;;;;;;;151.42;74.95;;;;;;;-4.69;82.44;99081.59;1754687;80;21193;-79
2020/12/20 07:29:07;;;;;;;113.72;61.28;;;;;;;-4.72;82.61;99081.89;1784855;80;20977;-78
2020/12/20 07:31:30;;;;;;;101.47;50.20;;;;;;;-4.66;82.60;99084.74;1784116;79;21483;-82
2020/12/20 07:33:56;;;;;;;100.15;57.17;;;;;;;-4.72;82.49;99078.75;1784742;80;21169;-78
2020/12/20 07:36:24;;;;;;;106.65;59.38;;;;;;;-4.63;82.91;99079.13;1784781;79;21194;-83
2020/12/20 07:38:50;;;;;;;106.87;57.70;;;;;;;-4.57;82.67;99082.47;1784129;80;21110;-79
2020/12/20 07:41:16;;;;;;;90.32;48.90;;;;;;;-4.56;82.60;99078.84;1784888;79;21064;-79
2020/12/20 07:43:49;;;;;;;108.27;47.38;;;;;;;-4.55;82.27;99075.20;1784833;80;21342;-81
2020/12/20 07:46:15;;;;;;;93.07;45.90;;;;;;;-4.57;82.45;99071.06;1784701;79;21110;-82
2020/12/20 07:48:41;;;;;;;86.95;41.83;;;;;;;-4.49;82.43;99074.25;1784735;79;21170;-82
2020/12/20 07:51:17;;;;;;;83.70;42.48;;;;;;;-4.41;82.51;99083.55;1784763;79;20892;-82
2020/12/20 07:53:46;;;;;;;78.80;42.62;;;;;;;-4.38;82.71;99083.22;1784826;79;21094;-78
2020/12/20 07:56:25;;;;;;;93.25;49.53;;;;;;;-4.36;82.92;99078.59;1754939;80;21228;-78
2020/12/20 07:58:52;;;;;;;103.85;55.63;;;;;;;-4.26;82.76;99083.29;1784791;80;21538;-82
2020/12/20 08:01:18;;;;;;;112.95;55.92;;;;;;;-4.26;82.76;99079.32;1754206;80;21059;-82
2020/12/20 08:03:45;;;;;;;135.00;72.20;;;;;;;-4.20;82.77;99078.66;1784795;80;21707;-82
2020/12/20 08:06:12;;;;;;;143.43;72.42;;;;;;;-4.08;82.85;99077.89;1754112;80;21114;-82
2020/12/20 08:08:38;;;;;;;148.10;72.62;;;;;;;-3.99;82.88;99088.34;1784859;80;21540;-78
2020/12/20 08:11:33;;;;;;;126.72;60.80;;;;;;;-3.99;82.92;99078.25;1784673;79;20976;-82
2020/12/20 08:14:01;;;;;;;130.60;63.08;;;;;;;-3.89;83.15;99080.26;1781159;80;21586;-81
2020/12/20 08:16:34;;;;;;;162.65;81.00;;;;;;;-3.75;83.63;99084.11;1784874;79;21042;-82
2020/12/20 08:19:10;;;;;;;147.72;77.05;;;;;;;-3.59;83.66;99081.49;1783449;80;21117;-78
2020/12/20 08:22:05;;;;;;;173.35;87.37;;;;;;;-3.50;83.28;99076.53;1756787;80;21967;-83
2020/12/20 08:24:37;;;;;;;157.35;76.30;;;;;;;-3.46;83.32;99077.02;1754244;80;21162;-79
2020/12/20 08:27:18;;;;;;;172.93;87.45;;;;;;;-3.39;83.61;99077.20;1755196;80;21126;-82
2020/12/20 08:29:49;;;;;;;176.47;90.72;;;;;;;-3.33;84.07;99084.00;1784783;79;21138;-79
2020/12/20 08:32:18;;;;;;;166.37;84.35;;;;;;;-3.19;83.81;99082.49;1755595;80;21721;-77
2020/12/20 08:34:44;;;;;;;162.80;77.87;;;;;;;-3.14;84.28;99086.81;1754418;79;21570;-82
2020/12/20 08:37:13;;;;;;;199.35;96.97;;;;;;;-3.09;83.89;99083.14;1784656;80;21052;-83
2020/12/20 08:39:40;;;;;;;197.78;95.83;;;;;;;-3.00;84.17;99083.47;1784502;79;21543;-82
2020/12/20 08:42:09;;;;;;;179.95;96.60;;;;;;;-2.92;84.43;99076.00;1784764;80;21115;-78
2020/12/20 08:44:36;;;;;;;180.70;91.28;;;;;;;-2.84;84.62;99080.80;1783631;79;21114;-78
2020/12/20 08:47:13;;;;;;;179.63;92.62;;;;;;;-2.71;84.82;99078.14;1784687;80;21599;-79
2020/12/20 08:49:56;;;;;;;166.37;79.72;;;;;;;-2.59;84.48;99074.95;1784713;79;21114;-78
2020/12/20 08:52:21;;;;;;;169.07;82.97;;;;;;;-2.54;84.00;99068.31;1754050;80;21612;-83
2020/12/20 08:54:50;;;;;;;153.02;74.70;;;;;;;-2.46;84.39;99073.10;1784793;79;20955;-82
2020/12/20 08:57:16;;;;;;;144.90;70.87;;;;;;;-2.34;84.58;99070.89;1784470;80;21106;-82
2020/12/20 08:59:46;;;;;;;129.80;59.03;;;;;;;-2.25;84.10;99070.36;1754475;79;21906;-83
2020/12/20 09:02:23;;;;;;;168.25;80.72;;;;;;;-2.19;83.97;99063.87;1754187;80;21166;-77
2020/12/20 09:05:06;;;;;;;177.80;84.52;;;;;;;-2.08;84.35;99056.01;1784723;79;21114;-77
2020/12/20 09:07:46;;;;;;;162.92;82.10;;;;;;;-2.02;84.62;99061.46;1784582;80;21577;-81
2020/12/20 09:10:20;;;;;;;168.17;85.38;;;;;;;-1.94;84.39;99059.27;1784804;79;21162;-81
2020/12/20 09:12:55;;;;;;;143.25;72.05;;;;;;;-1.88;85.32;99055.06;1784744;80;21579;-81
2020/12/20 09:15:26;;;;;;;141.47;72.42;;;;;;;-1.77;84.64;99054.19;1784781;79;21150;-78
2020/12/20 09:17:53;;;;;;;146.68;72.67;;;;;;;-1.71;85.67;99059.28;1728496;80;21610;-83
2020/12/20 09:20:22;;;;;;;154.07;76.22;;;;;;;-1.63;85.71;99051.25;1784754;79;21035;-78
2020/12/20 09:22:58;;;;;;;151.85;79.42;;;;;;;-1.51;86.36;99049.03;1784829;79;21456;-79
2020/12/20 09:25:39;;;;;;;141.40;75.55;;;;;;;-1.44;86.39;99047.32;1784785;79;21355;-77
2020/12/20 09:28:20;;;;;;;147.40;72.08;;;;;;;-1.33;85.93;99046.89;1783766;80;21122;-82
2020/12/20 09:30:47;;;;;;;151.05;78.00;;;;;;;-1.26;85.66;99051.83;1781036;79;21168;-81
2020/12/20 09:33:36;;;;;;;148.32;81.05;;;;;;;-1.16;85.71;99047.59;1754604;80;21138;-77
2020/12/20 09:36:20;;;;;;;136.07;65.87;;;;;;;-1.04;85.78;99047.46;1784993;79;21621;-77
2020/12/20 09:38:51;;;;;;;127.27;66.42;;;;;;;-0.90;86.24;99045.34;1784842;80;21783;-77
2020/12/20 09:41:22;;;;;;;125.15;61.68;;;;;;;-0.76;86.21;99041.56;1784787;79;21102;-77
2020/12/20 09:43:49;;;;;;;154.68;76.90;;;;;;;-0.64;85.86;99046.75;1784831;80;21099;-77
2020/12/20 09:46:30;;;;;;;144.90;73.67;;;;;;;-0.49;85.90;99045.43;1754368;80;21134;-83
2020/12/20 09:48:57;;;;;;;111.52;58.55;;;;;;;-0.37;85.75;99042.61;1784855;80;21577;-83
2020/12/20 09:51:23;;;;;;;102.02;52.75;;;;;;;-0.25;85.46;99045.14;1784757;79;21151;-78
2020/12/20 09:53:49;;;;;;;115.70;66.50;;;;;;;-0.21;86.57;99035.75;1784864;79;21185;-82
2020/12/20 09:56:16;;;;;;;95.30;50.90;;;;;;;-0.11;86.68;99033.63;1784943;79;21129;-78
2020/12/20 09:58:43;;;;;;;85.67;45.05;;;;;;;0.01;85.85;99026.50;1784883;80;21165;-78
2020/12/20 10:01:18;;;;;;;100.33;51.28;;;;;;;0.14;87.84;99022.12;1784935;79;21046;-78
2020/12/20 10:03:44;;;;;;;158.37;75.10;;;;;;;0.26;87.49;99028.62;1784815;80;21141;-82
2020/12/20 10:06:10;;;;;;;97.40;48.68;;;;;;;0.40;86.98;99028.23;1784821;79;21503;-78
2020/12/20 10:08:36;;;;;;;87.20;45.05;;;;;;;0.49;86.28;99023.09;1754482;80;20864;-78
2020/12/20 10:11:02;;;;;;;76.65;41.98;;;;;;;0.64;86.12;99024.38;1784941;79;21130;-82
2020/12/20 10:13:28;;;;;;;85.92;46.35;;;;;;;0.75;85.90;99023.84;1784903;79;20967;-81
2020/12/20 10:15:54;;;;;;;78.42;41.75;;;;;;;0.86;86.20;99017.70;1758675;80;22779;-79
2020/12/20 10:18:20;;;;;;;74.97;39.53;;;;;;;0.97;86.32;99013.16;1784823;79;21058;-82
2020/12/20 10:20:46;;;;;;;107.67;56.70;;;;;;;1.07;85.86;99010.97;1784860;79;21496;-78
2020/12/20 10:23:12;;;;;;;100.50;53.10;;;;;;;1.15;85.96;99016.16;1784891;80;20939;-78
2020/12/20 10:25:40;;;;;;;93.75;50.43;;;;;;;1.24;86.27;99006.97;1784895;79;21015;-79
2020/12/20 10:28:07;;;;;;;84.17;48.95;;;;;;;1.35;86.18;99006.93;1784809;80;21102;-83
2020/12/20 10:30:33;;;;;;;72.67;36.83;;;;;;;1.46;86.05;99003.73;1784801;79;21173;-82
2020/12/20 10:32:59;;;;;;;65.40;34.63;;;;;;;1.54;86.04;99004.91;1754382;80;20872;-82
2020/12/20 10:35:27;;;;;;;54.03;28.15;;;;;;;1.60;85.81;99002.75;1784906;79;20908;-78
2020/12/20 10:37:56;;;;;;;68.40;38.28;;;;;;;1.69;85.37;98991.39;1784883;79;21103;-82
2020/12/20 10:40:24;;;;;;;69.60;37.40;;;;;;;1.76;85.40;98990.91;1784856;79;21182;-83
2020/12/20 10:42:49;;;;;;;56.18;30.48;;;;;;;1.86;85.54;98987.86;1784747;80;21054;-83
2020/12/20 10:45:16;;;;;;;37.90;21.90;;;;;;;1.99;85.62;98982.57;1729375;80;21584;-79
2020/12/20 10:47:41;;;;;;;42.78;27.42;;;;;;;2.13;85.45;98993.59;1754298;80;21149;-84
2020/12/20 10:50:10;;;;;;;38.42;22.30;;;;;;;2.24;85.28;98999.72;1784906;79;21091;-80
2020/12/20 10:52:36;;;;;;;42.70;23.87;;;;;;;2.34;84.51;98989.14;1784898;79;21538;-82
2020/12/20 10:55:03;;;;;;;44.23;24.23;;;;;;;2.43;85.05;98985.23;1784876;79;20928;-76
2020/12/20 10:57:29;;;;;;;42.75;26.25;;;;;;;2.49;84.79;98988.45;1784805;80;21202;-76
2020/12/20 10:59:55;;;;;;;52.78;26.07;;;;;;;2.52;84.62;98987.52;1754261;79;20963;-82
2020/12/20 11:02:21;;;;;;;46.30;23.95;;;;;;;2.52;84.54;98990.19;1784876;79;20989;-78
2020/12/20 11:04:47;;;;;;;45.43;24.45;;;;;;;2.54;84.42;98985.45;1754188;79;21217;-82
2020/12/20 11:07:16;;;;;;;60.28;27.75;;;;;;;2.59;84.40;98984.84;1784664;80;20931;-81
2020/12/20 11:09:40;;;;;;;113.80;54.27;;;;;;;2.64;84.28;98985.04;1784718;79;21114;-78
2020/12/20 11:12:06;;;;;;;105.15;53.20;;;;;;;2.70;84.23;98986.91;1784802;80;21011;-83
2020/12/20 11:14:33;;;;;;;75.60;38.17;;;;;;;2.77;84.12;98985.57;1784840;79;21117;-83
2020/12/20 11:16:59;;;;;;;65.20;35.30;;;;;;;2.85;84.35;98980.02;1784629;80;21384;-78
2020/12/20 11:19:25;;;;;;;109.55;63.25;;;;;;;2.94;84.52;98969.41;1754342;80;21329;-78
2020/12/20 11:21:52;;;;;;;52.17;30.97;;;;;;;2.94;84.52;98969.41;1754520;80;21487;-78
2020/12/20 11:24:18;;;;;;;61.08;34.63;;;;;;;3.07;84.45;98972.05;1784728;80;21190;-82
2020/12/20 11:26:44;;;;;;;48.52;26.95;;;;;;;3.16;84.29;98973.98;1784816;79;21092;-79